Time;durP1;ratioP1;P1;durP2;ratioP2;P2;SDS_P1;SDS_P2;PMS_P1;PMS_P2;Temp;Humidity;BMP_temperature;BMP_pressure;BME280_temperature;BME280_humidity;BME280_pressure;Samples;Min_cycle;Max_cycle;Signal;HPM_P1;HPM_P2
2023/06/15 00:01:55;;;;;;;11.05;7.93;;;11.40;99.90;;;;;;5009036;28;20045;-83
2023/06/15 00:04:21;;;;;;;9.13;8.23;;;11.40;99.90;;;;;;5009116;28;20134;-84
2023/06/15 00:06:46;;;;;;;9.23;8.23;;;11.40;99.90;;;;;;5009205;28;20052;-84
2023/06/15 00:09:12;;;;;;;13.63;9.82;;;11.30;99.90;;;;;;5008937;28;20154;-83
2023/06/15 00:11:38;;;;;;;10.75;9.65;;;11.20;99.90;;;;;;5008920;28;20495;-83
2023/06/15 00:14:04;;;;;;;12.23;10.93;;;11.20;99.90;;;;;;5008799;28;20018;-83
2023/06/15 00:16:32;;;;;;;10.95;9.75;;;11.20;99.90;;;;;;5008858;28;20121;-83
2023/06/15 00:18:58;;;;;;;11.65;7.88;;;11.20;99.90;;;;;;5008773;28;20022;-82
2023/06/15 00:21:27;;;;;;;9.10;8.15;;;11.10;99.90;;;;;;5008793;28;20026;-82
2023/06/15 00:23:52;;;;;;;8.70;7.90;;;11.10;99.90;;;;;;5009943;28;20104;-84
2023/06/15 00:26:18;;;;;;;10.90;8.35;;;11.10;99.90;;;;;;5008668;28;20109;-83
2023/06/15 00:28:43;;;;;;;11.05;8.13;;;11.10;99.90;;;;;;5008617;28;20014;-83
2023/06/15 00:31:09;;;;;;;13.05;8.05;;;11.10;99.90;;;;;;5009979;28;20026;-84
2023/06/15 00:33:35;;;;;;;9.60;8.60;;;11.00;99.90;;;;;;5008731;28;20030;-84
2023/06/15 00:36:00;;;;;;;10.38;9.18;;;11.00;99.90;;;;;;5009933;28;20451;-84
2023/06/15 00:38:26;;;;;;;11.18;10.00;;;11.00;99.90;;;;;;5008554;28;20383;-82
2023/06/15 00:40:52;;;;;;;12.00;10.68;;;11.00;99.90;;;;;;5008667;28;20015;-84
2023/06/15 00:43:21;;;;;;;11.35;10.10;;;11.00;99.90;;;;;;5011213;28;20029;-84
2023/06/15 00:45:46;;;;;;;13.13;10.90;;;11.00;99.90;;;;;;5011780;28;20487;-84
2023/06/15 00:48:13;;;;;;;11.90;9.35;;;11.00;99.90;;;;;;5011813;28;20026;-84
2023/06/15 00:50:40;;;;;;;11.05;9.15;;;11.00;99.90;;;;;;5011844;28;20060;-82
2023/06/15 00:53:06;;;;;;;14.02;10.55;;;11.00;99.90;;;;;;5011618;28;20171;-83
2023/06/15 00:55:32;;;;;;;12.93;10.15;;;11.00;99.90;;;;;;5011634;28;20117;-84
2023/06/15 00:57:59;;;;;;;12.15;10.88;;;11.00;99.90;;;;;;5011541;28;20037;-83
2023/06/15 01:00:24;;;;;;;11.13;9.93;;;11.00;99.90;;;;;;5011743;28;20279;-83
2023/06/15 01:02:50;;;;;;;12.75;11.43;;;11.00;99.90;;;;;;5011679;28;20025;-83
2023/06/15 01:05:17;;;;;;;12.60;10.13;;;11.00;99.90;;;;;;5012920;28;20053;-84
2023/06/15 01:07:47;;;;;;;12.45;10.90;;;11.00;99.90;;;;;;5011617;28;20071;-82
2023/06/15 01:10:15;;;;;;;11.23;9.35;;;10.90;99.90;;;;;;5012000;28;20387;-82
2023/06/15 01:12:44;;;;;;;10.23;8.68;;;10.90;99.90;;;;;;5011944;28;20028;-83
2023/06/15 01:15:10;;;;;;;9.38;7.75;;;10.90;99.90;;;;;;5010753;28;20116;-81
2023/06/15 01:17:44;;;;;;;9.73;8.73;;;10.80;99.90;;;;;;5011302;28;20067;-82
2023/06/15 01:20:21;;;;;;;9.18;7.63;;;10.90;99.90;;;;;;5011447;28;20026;-84
2023/06/15 01:23:19;;;;;;;9.70;8.68;;;10.90;99.90;;;;;;5012600;28;20033;-83
2023/06/15 01:25:44;;;;;;;12.23;8.48;;;10.90;99.90;;;;;;5012534;28;20018;-82
2023/06/15 01:28:15;;;;;;;10.00;8.88;;;10.90;99.90;;;;;;5011252;28;20030;-84
2023/06/15 01:30:43;;;;;;;12.93;9.75;;;11.00;99.90;;;;;;5011135;28;20050;-83
2023/06/15 01:33:09;;;;;;;12.43;9.77;;;11.00;99.90;;;;;;5011124;28;20086;-82
2023/06/15 01:35:35;;;;;;;11.02;9.57;;;11.00;99.90;;;;;;5012359;28;20042;-83
2023/06/15 01:38:01;;;;;;;11.90;9.43;;;10.90;99.90;;;;;;5011092;28;20459;-82
2023/06/15 01:40:28;;;;;;;9.63;8.70;;;11.00;99.90;;;;;;5011068;28;20018;-83
2023/06/15 01:42:55;;;;;;;10.20;9.13;;;11.00;99.90;;;;;;5011187;28;20062;-82
2023/06/15 01:45:22;;;;;;;15.63;9.73;;;11.00;99.90;;;;;;5012141;28;20166;-83
2023/06/15 01:47:48;;;;;;;10.13;9.13;;;11.00;99.90;;;;;;5010828;28;20079;-81
2023/06/15 01:50:16;;;;;;;11.32;10.13;;;11.00;99.90;;;;;;5010748;28;20093;-82
2023/06/15 01:52:41;;;;;;;12.25;8.75;;;11.10;99.90;;;;;;5011304;28;20022;-83
2023/06/15 01:55:08;;;;;;;11.30;9.48;;;11.10;99.90;;;;;;5026568;28;20047;-82
2023/06/15 01:57:38;;;;;;;10.20;9.00;;;11.10;99.90;;;;;;5030481;28;20022;-82
2023/06/15 02:00:05;;;;;;;11.65;8.95;;;11.10;99.90;;;;;;5030455;28;20017;-84
2023/06/15 02:02:32;;;;;;;10.48;9.18;;;11.00;99.90;;;;;;5031580;28;20026;-83
2023/06/15 02:04:57;;;;;;;11.82;9.55;;;11.00;99.90;;;;;;5031732;28;20033;-83
2023/06/15 02:07:23;;;;;;;9.40;8.40;;;11.00;99.90;;;;;;5031612;28;20090;-82
2023/06/15 02:09:49;;;;;;;12.13;9.70;;;11.10;99.90;;;;;;5030333;28;20424;-82
2023/06/15 02:12:14;;;;;;;11.18;9.57;;;11.00;99.90;;;;;;5031581;28;20030;-82
2023/06/15 02:14:40;;;;;;;10.63;8.85;;;11.10;99.90;;;;;;5031434;28;20033;-82
2023/06/15 02:17:06;;;;;;;11.73;9.43;;;11.00;99.90;;;;;;5030213;28;20069;-82
2023/06/15 02:19:32;;;;;;;11.77;9.75;;;11.00;99.90;;;;;;5030131;28;20112;-82
2023/06/15 02:21:57;;;;;;;16.15;11.30;;;11.00;99.90;;;;;;5031398;28;20466;-82
2023/06/15 02:24:23;;;;;;;13.52;11.13;;;11.00;99.90;;;;;;5060181;27;20376;-82
2023/06/15 02:26:49;;;;;;;12.07;10.32;;;11.00;99.90;;;;;;5134016;27;20083;-82
2023/06/15 02:29:15;;;;;;;10.95;9.75;;;11.10;99.90;;;;;;5134059;27;20027;-82
2023/06/15 02:31:40;;;;;;;13.27;9.90;;;11.00;99.90;;;;;;5134190;27;20064;-82
2023/06/15 02:34:06;;;;;;;12.30;10.45;;;11.10;99.90;;;;;;5133929;27;20122;-82
2023/06/15 02:36:34;;;;;;;10.75;9.25;;;11.10;99.90;;;;;;5135410;27;20035;-82
2023/06/15 02:39:01;;;;;;;11.20;10.05;;;11.10;99.90;;;;;;5134579;27;20119;-82
2023/06/15 02:41:27;;;;;;;12.50;11.20;;;11.00;99.90;;;;;;5133714;27;20034;-82
2023/06/15 02:43:52;;;;;;;14.60;11.25;;;11.00;99.90;;;;;;5133408;27;20011;-83
2023/06/15 02:46:20;;;;;;;14.60;11.68;;;10.90;99.90;;;;;;5133827;27;20084;-82
2023/06/15 02:48:51;;;;;;;14.23;10.60;;;10.90;99.90;;;;;;5134673;27;20019;-82
2023/06/15 02:51:18;;;;;;;11.10;9.55;;;10.90;99.90;;;;;;5133459;27;20039;-82
2023/06/15 02:53:43;;;;;;;11.70;10.13;;;10.90;99.90;;;;;;5133421;27;20030;-82
2023/06/15 02:56:09;;;;;;;10.50;9.35;;;10.90;99.90;;;;;;5133203;27;20057;-83
2023/06/15 02:58:37;;;;;;;15.10;9.88;;;10.90;99.90;;;;;;5133280;27;20042;-82
2023/06/15 03:01:03;;;;;;;15.02;10.40;;;10.80;99.90;;;;;;5134468;27;20437;-83
2023/06/15 03:03:29;;;;;;;12.40;10.02;;;10.80;99.90;;;;;;5133321;27;20068;-83
2023/06/15 03:05:56;;;;;;;19.70;12.10;;;10.80;99.90;;;;;;5133048;27;20109;-84
2023/06/15 03:08:31;;;;;;;15.32;11.35;;;10.70;99.90;;;;;;5133266;27;20027;-82
2023/06/15 03:10:57;;;;;;;18.52;12.23;;;10.80;99.90;;;;;;5133754;27;20144;-83
2023/06/15 03:13:22;;;;;;;21.00;12.93;;;10.80;99.90;;;;;;5134460;27;20455;-84
2023/06/15 03:15:48;;;;;;;15.82;12.48;;;10.80;99.90;;;;;;5133209;27;20039;-81
2023/06/15 03:18:13;;;;;;;16.70;12.57;;;10.80;99.90;;;;;;5133124;27;20064;-82
2023/06/15 03:20:43;;;;;;;20.48;12.65;;;10.90;99.90;;;;;;5133139;27;20030;-81
2023/06/15 03:23:13;;;;;;;26.85;14.35;;;10.90;99.90;;;;;;5133037;27;20018;-84
2023/06/15 03:25:38;;;;;;;34.13;17.23;;;11.00;99.90;;;;;;5132986;27;20011;-81
2023/06/15 03:28:04;;;;;;;27.45;15.15;;;11.00;99.90;;;;;;5132952;27;20023;-83
2023/06/15 03:30:30;;;;;;;20.42;14.50;;;11.00;99.90;;;;;;5133038;27;20035;-83
2023/06/15 03:32:55;;;;;;;24.20;14.25;;;11.10;99.90;;;;;;5134300;27;20031;-83
2023/06/15 03:35:21;;;;;;;22.10;14.05;;;11.10;99.90;;;;;;5132903;27;20480;-83
2023/06/15 03:37:47;;;;;;;25.00;13.30;;;11.10;99.90;;;;;;5132994;27;20045;-83
2023/06/15 03:40:13;;;;;;;38.58;14.52;;;11.00;99.90;;;;;;5134624;28;20071;-83
2023/06/15 03:42:39;;;;;;;54.15;15.90;;;11.10;99.90;;;;;;5132833;27;20035;-83
2023/06/15 03:45:06;;;;;;;65.78;16.92;;;11.10;99.90;;;;;;5132964;28;20077;-82
2023/06/15 03:47:32;;;;;;;92.20;18.50;;;11.10;99.90;;;;;;5133932;27;20028;-82
2023/06/15 03:49:58;;;;;;;91.15;19.02;;;11.10;99.90;;;;;;5132727;28;20019;-83
2023/06/15 03:52:25;;;;;;;56.10;17.05;;;11.10;99.90;;;;;;5132956;28;20494;-82
2023/06/15 03:54:51;;;;;;;51.55;16.40;;;11.00;99.90;;;;;;5134076;27;20027;-83
2023/06/15 03:57:17;;;;;;;28.80;14.52;;;11.00;99.90;;;;;;5132789;28;20026;-83
2023/06/15 03:59:42;;;;;;;27.60;16.33;;;11.10;99.90;;;;;;5132626;27;20019;-83
2023/06/15 04:02:08;;;;;;;28.27;16.50;;;11.10;99.90;;;;;;5132724;28;20026;-83
2023/06/15 04:04:34;;;;;;;31.52;18.15;;;11.20;99.90;;;;;;5133883;27;20034;-83
2023/06/15 04:06:59;;;;;;;34.58;17.48;;;11.30;99.90;;;;;;5132668;28;20019;-83
2023/06/15 04:09:25;;;;;;;28.15;17.13;;;11.30;99.90;;;;;;5132566;27;20015;-83
2023/06/15 04:11:51;;;;;;;43.25;17.45;;;11.30;99.90;;;;;;5133875;27;20023;-83
2023/06/15 04:14:18;;;;;;;34.20;16.95;;;11.30;99.90;;;;;;5132600;27;20026;-82
2023/06/15 04:16:43;;;;;;;31.88;17.48;;;11.30;99.90;;;;;;5132733;27;20043;-82
2023/06/15 04:19:10;;;;;;;25.83;16.60;;;11.30;99.90;;;;;;5135796;27;20423;-82
2023/06/15 04:21:36;;;;;;;27.60;16.73;;;11.30;99.90;;;;;;5136580;27;20400;-82
2023/06/15 04:24:02;;;;;;;22.20;15.07;;;11.30;99.90;;;;;;5136806;27;20374;-82
2023/06/15 04:26:28;;;;;;;24.30;15.57;;;11.30;99.90;;;;;;5136452;27;20023;-82
2023/06/15 04:28:57;;;;;;;26.20;17.73;;;11.30;99.90;;;;;;5136379;27;20099;-82
2023/06/15 04:31:24;;;;;;;24.60;15.90;;;11.40;99.90;;;;;;5136623;27;20066;-82
2023/06/15 04:33:50;;;;;;;34.55;16.38;;;11.50;99.90;;;;;;5136261;27;20023;-81
2023/06/15 04:36:16;;;;;;;29.60;17.10;;;11.60;99.90;;;;;;5136206;27;20055;-82
2023/06/15 04:38:46;;;;;;;28.02;17.70;;;11.70;99.90;;;;;;5137530;27;20015;-82
2023/06/15 04:41:16;;;;;;;29.15;16.58;;;11.70;99.90;;;;;;5136272;27;20515;-83
2023/06/15 04:43:42;;;;;;;26.77;18.10;;;11.70;99.90;;;;;;5136118;27;20029;-82
2023/06/15 04:46:08;;;;;;;22.63;16.13;;;11.80;99.90;;;;;;5138201;27;20019;-83
2023/06/15 04:48:34;;;;;;;21.65;15.20;;;11.90;99.90;;;;;;5137761;27;20023;-82
2023/06/15 04:50:59;;;;;;;25.25;16.77;;;12.00;99.90;;;;;;5136185;27;20050;-83
2023/06/15 04:53:25;;;;;;;23.08;16.90;;;12.10;99.90;;;;;;5137286;27;20027;-83
2023/06/15 04:55:51;;;;;;;21.80;15.10;;;12.10;99.90;;;;;;5108057;27;20119;-83
2023/06/15 04:58:17;;;;;;;24.00;16.42;;;12.20;99.90;;;;;;5012923;28;20018;-83
2023/06/15 05:00:43;;;;;;;26.13;15.90;;;12.20;99.90;;;;;;5011732;28;20428;-82
2023/06/15 05:03:11;;;;;;;26.90;17.38;;;12.30;99.90;;;;;;5018050;28;20022;-82
2023/06/15 05:05:36;;;;;;;25.67;17.35;;;12.30;99.90;;;;;;5021511;28;20029;-83
2023/06/15 05:08:02;;;;;;;22.30;15.27;;;12.50;99.90;;;;;;5011473;28;20022;-85
2023/06/15 05:10:28;;;;;;;24.73;15.85;;;12.50;99.90;;;;;;5012200;28;20029;-84
2023/06/15 05:12:54;;;;;;;24.65;16.95;;;12.60;99.90;;;;;;5012687;28;20487;-82
2023/06/15 05:15:20;;;;;;;24.73;16.48;;;12.60;99.90;;;;;;5010274;28;20079;-83
2023/06/15 05:17:46;;;;;;;24.20;15.93;;;12.70;99.90;;;;;;5030150;28;20505;-83
2023/06/15 05:20:12;;;;;;;26.63;17.65;;;12.70;99.90;;;;;;5032028;28;20053;-81
2023/06/15 05:22:37;;;;;;;25.00;16.98;;;12.70;99.90;;;;;;5032161;28;20026;-81
2023/06/15 05:25:03;;;;;;;26.90;17.85;;;12.70;99.90;;;;;;5030429;28;20022;-82
2023/06/15 05:27:29;;;;;;;24.90;17.40;;;12.70;99.90;;;;;;5025648;28;20079;-81
2023/06/15 05:29:55;;;;;;;22.95;16.73;;;12.70;99.90;;;;;;5011017;28;20033;-82
2023/06/15 05:32:21;;;;;;;24.00;17.08;;;12.80;99.90;;;;;;5010929;28;20018;-80
2023/06/15 05:34:46;;;;;;;24.15;17.63;;;12.90;99.90;;;;;;5027744;28;20025;-83
2023/06/15 05:37:12;;;;;;;23.83;17.10;;;12.90;99.90;;;;;;5029588;28;20074;-82
2023/06/15 05:39:37;;;;;;;26.38;17.65;;;13.10;99.90;;;;;;5035755;28;20109;-81
2023/06/15 05:42:03;;;;;;;22.90;17.73;;;13.20;99.90;;;;;;5028654;28;20051;-82
2023/06/15 05:44:29;;;;;;;25.98;16.08;;;13.20;99.90;;;;;;5026546;28;20105;-81
2023/06/15 05:46:54;;;;;;;31.77;18.35;;;13.20;99.90;;;;;;5022848;28;20069;-83
2023/06/15 05:49:20;;;;;;;22.65;16.17;;;13.30;99.90;;;;;;5008687;28;20033;-83
2023/06/15 05:51:46;;;;;;;26.48;17.40;;;13.30;99.90;;;;;;5027862;28;20053;-83
2023/06/15 05:54:11;;;;;;;28.85;18.40;;;13.30;99.90;;;;;;5025442;28;20021;-82
2023/06/15 05:56:37;;;;;;;25.75;17.13;;;13.30;99.90;;;;;;5027576;28;20044;-82
2023/06/15 05:59:02;;;;;;;26.42;17.98;;;13.30;99.90;;;;;;5028087;28;20042;-83
2023/06/15 06:01:28;;;;;;;33.72;24.30;;;13.30;99.90;;;;;;5029071;28;20033;-82
2023/06/15 06:03:54;;;;;;;32.58;23.13;;;13.40;99.90;;;;;;5027563;28;20026;-82
2023/06/15 06:06:19;;;;;;;27.25;18.52;;;13.50;99.90;;;;;;5027436;28;20060;-82
2023/06/15 06:08:46;;;;;;;25.33;17.13;;;13.50;99.90;;;;;;5028869;28;20025;-82
2023/06/15 06:11:11;;;;;;;29.75;18.60;;;13.60;99.90;;;;;;5027594;28;20021;-82
2023/06/15 06:13:37;;;;;;;28.95;18.33;;;13.60;99.90;;;;;;5028755;28;20038;-82
2023/06/15 06:16:03;;;;;;;27.55;18.38;;;13.70;99.90;;;;;;5027494;28;20034;-82
2023/06/15 06:18:29;;;;;;;29.48;18.45;;;13.80;99.90;;;;;;5030436;28;20030;-83
2023/06/15 06:20:54;;;;;;;28.15;18.25;;;13.90;99.90;;;;;;5031468;28;20045;-83
2023/06/15 06:23:21;;;;;;;28.63;19.08;;;13.90;99.90;;;;;;5031363;28;20026;-82
2023/06/15 06:25:47;;;;;;;29.83;19.38;;;13.90;99.90;;;;;;5035955;28;20017;-82
2023/06/15 06:28:12;;;;;;;26.45;17.92;;;14.00;99.90;;;;;;5031563;28;20471;-83
2023/06/15 06:30:38;;;;;;;27.35;17.38;;;14.10;99.90;;;;;;5030351;28;20501;-83
2023/06/15 06:33:04;;;;;;;29.05;18.35;;;14.10;99.90;;;;;;5031271;28;20025;-83
2023/06/15 06:35:30;;;;;;;26.50;18.00;;;14.20;99.90;;;;;;5030035;28;20040;-83
2023/06/15 06:37:55;;;;;;;27.98;17.35;;;14.40;99.90;;;;;;5031205;28;20037;-83
2023/06/15 06:40:21;;;;;;;22.88;15.18;;;14.40;99.90;;;;;;5029299;28;20025;-83
2023/06/15 06:42:47;;;;;;;21.77;15.20;;;14.50;99.90;;;;;;5031047;28;20150;-83
2023/06/15 06:45:12;;;;;;;21.10;15.07;;;14.60;99.90;;;;;;5029921;28;20028;-83
2023/06/15 06:47:38;;;;;;;22.08;14.85;;;14.70;99.90;;;;;;5029709;28;20395;-83
2023/06/15 06:50:06;;;;;;;20.42;13.95;;;14.70;99.90;;;;;;5029462;28;20025;-83
2023/06/15 06:52:32;;;;;;;20.83;14.20;;;14.70;99.90;;;;;;5033828;28;20029;-82
2023/06/15 06:54:57;;;;;;;18.23;13.38;;;14.80;99.90;;;;;;5030488;28;20462;-83
2023/06/15 06:57:23;;;;;;;20.92;12.60;;;14.90;99.90;;;;;;5029799;28;20112;-83
2023/06/15 06:59:49;;;;;;;15.35;9.98;;;15.00;99.90;;;;;;5031129;28;20470;-83
2023/06/15 07:02:14;;;;;;;14.05;9.95;;;15.00;99.90;;;;;;5029733;28;20094;-83
2023/06/15 07:04:40;;;;;;;13.23;10.50;;;15.00;99.90;;;;;;5029585;28;20478;-83
2023/06/15 07:07:06;;;;;;;12.50;9.32;;;15.10;99.90;;;;;;5030837;28;20024;-83
2023/06/15 07:09:31;;;;;;;15.38;11.40;;;15.20;99.90;;;;;;5029516;28;20029;-83
2023/06/15 07:11:57;;;;;;;18.10;12.05;;;15.20;99.90;;;;;;5029416;28;20021;-83
2023/06/15 07:14:22;;;;;;;18.58;12.38;;;15.30;99.90;;;;;;5030267;28;20025;-82
2023/06/15 07:16:48;;;;;;;17.17;12.05;;;15.40;99.90;;;;;;5030584;28;20040;-83
2023/06/15 07:19:14;;;;;;;15.13;11.52;;;15.40;99.90;;;;;;5029560;28;20026;-83
2023/06/15 07:21:40;;;;;;;21.05;13.18;;;15.10;99.90;;;;;;5030816;28;20501;-83
2023/06/15 07:24:05;;;;;;;19.35;12.77;;;15.10;99.90;;;;;;5030548;28;20507;-83
2023/06/15 07:26:31;;;;;;;20.33;13.48;;;15.20;99.90;;;;;;5030700;28;20093;-83
2023/06/15 07:28:56;;;;;;;20.50;14.02;;;15.30;99.90;;;;;;5029322;28;20045;-83
2023/06/15 07:31:22;;;;;;;22.23;14.68;;;15.30;99.90;;;;;;5029288;28;20104;-83
2023/06/15 07:33:48;;;;;;;21.40;14.25;;;15.30;99.90;;;;;;5029144;28;20024;-83
2023/06/15 07:36:13;;;;;;;20.17;13.93;;;15.40;99.90;;;;;;5030642;28;20033;-83
2023/06/15 07:38:41;;;;;;;23.83;14.90;;;15.60;99.90;;;;;;5029382;28;20459;-83
2023/06/15 07:41:06;;;;;;;24.98;15.02;;;15.80;99.90;;;;;;5030499;28;20026;-83
2023/06/15 07:43:32;;;;;;;22.25;15.52;;;16.20;99.90;;;;;;5029162;28;20535;-83
2023/06/15 07:45:58;;;;;;;24.23;14.57;;;16.40;99.90;;;;;;5029046;28;20025;-83
2023/06/15 07:48:23;;;;;;;20.17;13.77;;;16.50;99.90;;;;;;5028999;28;20017;-83
2023/06/15 07:50:49;;;;;;;13.45;11.70;;;16.60;99.90;;;;;;5028853;28;20054;-83
2023/06/15 07:53:15;;;;;;;17.55;12.18;;;16.70;99.90;;;;;;5030468;28;20459;-83
2023/06/15 07:55:41;;;;;;;17.60;11.80;;;16.90;99.90;;;;;;5032402;28;20029;-83
2023/06/15 07:58:07;;;;;;;15.57;11.38;;;17.00;99.90;;;;;;5033786;28;20057;-83
2023/06/15 08:00:32;;;;;;;15.30;12.10;;;16.90;99.90;;;;;;5033739;28;20065;-83
2023/06/15 08:02:58;;;;;;;15.98;11.40;;;17.10;99.90;;;;;;5033255;28;20030;-83
2023/06/15 08:05:24;;;;;;;16.10;12.25;;;17.30;99.90;;;;;;5036056;28;20167;-83
2023/06/15 08:07:49;;;;;;;15.10;11.30;;;17.10;99.90;;;;;;5033627;28;20109;-83
2023/06/15 08:10:17;;;;;;;19.95;11.52;;;17.10;99.90;;;;;;5032370;28;20466;-83
2023/06/15 08:12:42;;;;;;;19.40;12.05;;;17.00;99.90;;;;;;5032295;28;20029;-83
2023/06/15 08:15:08;;;;;;;13.25;8.85;;;17.00;99.90;;;;;;5032482;28;20386;-83
2023/06/15 08:17:34;;;;;;;16.02;9.77;;;16.70;99.90;;;;;;5032175;28;20022;-83
2023/06/15 08:20:00;;;;;;;13.13;9.68;;;16.70;99.90;;;;;;5032086;28;20025;-83
2023/06/15 08:22:27;;;;;;;12.77;8.55;;;16.70;99.90;;;;;;5032143;28;20470;-83
2023/06/15 08:24:53;;;;;;;10.98;7.80;;;16.90;99.90;;;;;;5033293;28;20116;-83
2023/06/15 08:27:19;;;;;;;8.95;6.28;;;17.30;99.90;;;;;;5031943;28;20113;-83
2023/06/15 08:29:44;;;;;;;10.85;6.03;;;17.50;90.40;;;;;;5031991;28;20026;-83
2023/06/15 08:32:13;;;;;;;12.57;7.20;;;17.60;89.50;;;;;;5037769;28;20017;-83
2023/06/15 08:34:41;;;;;;;10.93;7.45;;;17.80;88.40;;;;;;5033281;28;20033;-83
2023/06/15 08:37:08;;;;;;;15.68;7.35;;;18.00;86.60;;;;;;5033419;28;20033;-84
2023/06/15 08:39:34;;;;;;;8.70;7.13;;;18.30;86.70;;;;;;5031978;28;20393;-84
2023/06/15 08:42:02;;;;;;;11.18;6.15;;;18.10;89.30;;;;;;5031926;28;20013;-83
2023/06/15 08:44:31;;;;;;;8.40;5.85;;;18.00;87.70;;;;;;5033046;28;20096;-84
2023/06/15 08:46:58;;;;;;;7.40;5.53;;;17.90;87.50;;;;;;5031959;28;20482;-83
2023/06/15 08:49:25;;;;;;;7.43;5.55;;;17.80;90.30;;;;;;5031764;28;20108;-83
2023/06/15 08:51:53;;;;;;;7.78;6.32;;;17.70;88.60;;;;;;5032804;28;20057;-83
2023/06/15 08:54:21;;;;;;;9.48;5.72;;;17.70;91.70;;;;;;5032957;28;20026;-84
2023/06/15 08:56:47;;;;;;;7.13;5.00;;;17.90;91.40;;;;;;5033899;28;20076;-83
2023/06/15 08:59:12;;;;;;;7.50;5.95;;;17.90;91.00;;;;;;5031842;28;20025;-84
2023/06/15 09:01:41;;;;;;;7.28;6.38;;;18.00;89.30;;;;;;5031544;28;20049;-83
2023/06/15 09:04:07;;;;;;;10.75;6.72;;;18.20;85.20;;;;;;5031100;28;20124;-83
2023/06/15 09:06:33;;;;;;;7.18;6.25;;;18.50;83.60;;;;;;5032899;28;20060;-83
2023/06/15 09:08:59;;;;;;;8.75;6.05;;;18.80;84.10;;;;;;5031396;28;20104;-83
2023/06/15 09:11:24;;;;;;;7.22;5.80;;;18.80;82.70;;;;;;5032726;28;20049;-84
2023/06/15 09:13:51;;;;;;;6.97;6.00;;;18.90;81.60;;;;;;5031388;28;20053;-84
2023/06/15 09:16:16;;;;;;;8.18;5.95;;;18.70;80.60;;;;;;5032665;28;20033;-84
2023/06/15 09:18:51;;;;;;;5.95;5.35;;;19.10;82.70;;;;;;5038112;28;20032;-84
2023/06/15 09:21:18;;;;;;;8.65;6.65;;;19.30;79.80;;;;;;5031689;28;20458;-83
2023/06/15 09:23:45;;;;;;;9.27;7.22;;;19.60;77.60;;;;;;5031220;28;20025;-84
2023/06/15 09:26:40;;;;;;;9.02;8.13;;;19.90;74.40;;;;;;5031332;28;20022;-84
2023/06/15 09:29:11;;;;;;;10.20;8.30;;;19.90;73.00;;;;;;5010566;28;20134;-83
2023/06/15 09:31:37;;;;;;;10.65;8.52;;;20.10;73.30;;;;;;5031050;28;20391;-83
2023/06/15 09:34:04;;;;;;;10.10;9.10;;;20.00;70.50;;;;;;5030819;28;20025;-83
2023/06/15 09:36:48;;;;;;;9.88;8.63;;;20.10;70.90;;;;;;5031927;28;20067;-84
2023/06/15 09:39:15;;;;;;;11.98;9.82;;;19.90;68.70;;;;;;5030919;28;20036;-83
2023/06/15 09:42:00;;;;;;;11.27;9.77;;;19.70;68.90;;;;;;5030868;28;20387;-84
2023/06/15 09:44:27;;;;;;;10.32;9.32;;;19.90;65.40;;;;;;5032761;28;20398;-83
2023/06/15 09:46:57;;;;;;;11.63;9.50;;;20.00;67.30;;;;;;5032274;28;20025;-83
2023/06/15 09:49:27;;;;;;;9.15;8.02;;;20.20;68.30;;;;;;5030991;28;20454;-81
2023/06/15 09:51:54;;;;;;;10.35;8.02;;;20.00;67.70;;;;;;5030782;28;20056;-81
2023/06/15 09:54:22;;;;;;;9.48;8.45;;;20.20;70.60;;;;;;5031972;28;20490;-82
2023/06/15 09:56:50;;;;;;;10.32;9.32;;;20.60;69.80;;;;;;5031782;28;20033;-82
2023/06/15 09:59:17;;;;;;;11.38;8.80;;;20.80;68.60;;;;;;5030519;28;20029;-81
2023/06/15 10:01:46;;;;;;;9.68;8.35;;;20.50;65.80;;;;;;5031787;28;20421;-82
2023/06/15 10:04:14;;;;;;;9.88;8.80;;;20.40;65.00;;;;;;5032414;28;20044;-81
2023/06/15 10:06:43;;;;;;;9.65;8.48;;;20.30;65.60;;;;;;5032370;28;20144;-82
2023/06/15 10:09:11;;;;;;;10.40;9.30;;;20.30;65.20;;;;;;5030659;28;20555;-81
2023/06/15 10:11:41;;;;;;;16.10;11.05;;;20.20;65.10;;;;;;5030446;28;20063;-81
2023/06/15 10:14:14;;;;;;;10.70;8.77;;;20.30;66.90;;;;;;5031617;28;20044;-81
2023/06/15 10:16:43;;;;;;;11.63;10.32;;;20.80;66.60;;;;;;5029400;28;20037;-82
2023/06/15 10:19:12;;;;;;;13.23;10.00;;;20.70;64.40;;;;;;5031602;28;20030;-82
2023/06/15 10:21:42;;;;;;;12.48;10.15;;;20.30;65.10;;;;;;5030507;28;20106;-81
2023/06/15 10:24:13;;;;;;;13.07;9.93;;;20.00;66.60;;;;;;5021157;28;20030;-82
2023/06/15 10:26:40;;;;;;;11.88;10.38;;;19.80;67.80;;;;;;5031297;28;20104;-82
2023/06/15 10:29:12;;;;;;;13.30;9.90;;;19.80;68.80;;;;;;5089390;27;20031;-81
2023/06/15 10:32:00;;;;;;;12.07;10.77;;;19.80;68.10;;;;;;5133824;27;20019;-81
2023/06/15 10:34:48;;;;;;;12.20;10.73;;;19.60;69.20;;;;;;5133637;27;20023;-81
2023/06/15 10:37:28;;;;;;;12.70;11.40;;;19.60;69.80;;;;;;5134994;27;20114;-82
2023/06/15 10:39:59;;;;;;;13.32;10.98;;;19.60;70.40;;;;;;5101886;27;20026;-83
2023/06/15 10:42:27;;;;;;;11.10;10.00;;;19.50;71.00;;;;;;5017171;28;20034;-83
2023/06/15 10:44:52;;;;;;;11.90;10.30;;;19.30;71.10;;;;;;5028294;28;20098;-83
2023/06/15 10:47:21;;;;;;;12.98;9.90;;;19.00;70.40;;;;;;5019130;28;20047;-83
2023/06/15 10:49:53;;;;;;;10.23;9.13;;;18.80;73.40;;;;;;5018759;28;20395;-82
2023/06/15 10:52:19;;;;;;;12.05;10.27;;;18.40;77.20;;;;;;4989451;28;20045;-83
2023/06/15 10:54:46;;;;;;;14.77;10.55;;;18.00;80.40;;;;;;4981941;28;20035;-84
2023/06/15 10:57:17;;;;;;;12.38;10.07;;;17.80;82.70;;;;;;4986733;28;20027;-83
2023/06/15 10:59:57;;;;;;;14.02;11.10;;;17.80;83.70;;;;;;4988481;28;20020;-83
2023/06/15 11:02:28;;;;;;;18.20;11.25;;;17.90;84.00;;;;;;4988230;28;20018;-83
2023/06/15 11:05:12;;;;;;;15.75;9.70;;;17.90;85.00;;;;;;4988401;28;20036;-83
2023/06/15 11:07:43;;;;;;;14.45;11.07;;;17.90;83.80;;;;;;4974710;28;20107;-83
2023/06/15 11:10:27;;;;;;;17.02;10.82;;;17.90;82.90;;;;;;4990702;28;20375;-83
2023/06/15 11:13:04;;;;;;;15.35;10.20;;;17.80;85.70;;;;;;4989676;28;20030;-83
2023/06/15 11:15:37;;;;;;;15.85;11.85;;;17.80;82.50;;;;;;4989787;28;20030;-83
2023/06/15 11:18:14;;;;;;;14.50;12.05;;;17.70;84.90;;;;;;4991055;28;20022;-83
2023/06/15 11:20:59;;;;;;;13.00;11.05;;;17.80;86.90;;;;;;4983250;28;20090;-82
2023/06/15 11:23:33;;;;;;;15.45;11.45;;;17.80;80.20;;;;;;4980714;28;20019;-81
2023/06/15 11:26:01;;;;;;;13.60;9.80;;;17.80;79.70;;;;;;4976637;28;20046;-82
2023/06/15 11:28:33;;;;;;;13.07;9.57;;;17.80;79.60;;;;;;4969392;28;20543;-81
2023/06/15 11:31:00;;;;;;;12.98;10.38;;;17.80;80.00;;;;;;4971496;28;20030;-82
2023/06/15 11:33:30;;;;;;;13.07;11.43;;;17.90;81.30;;;;;;4971394;28;20023;-82
2023/06/15 11:35:59;;;;;;;13.38;11.15;;;17.90;80.50;;;;;;4971497;28;20039;-81
2023/06/15 11:38:25;;;;;;;12.70;11.27;;;17.90;81.40;;;;;;4982501;28;20400;-83
2023/06/15 11:40:58;;;;;;;11.98;10.25;;;18.00;81.00;;;;;;4978453;28;20076;-82
2023/06/15 11:43:24;;;;;;;12.68;10.60;;;17.90;81.10;;;;;;4973972;28;20028;-82
2023/06/15 11:45:50;;;;;;;14.48;10.75;;;18.00;81.10;;;;;;4980083;28;20033;-81
2023/06/15 11:48:15;;;;;;;11.45;9.88;;;18.20;82.70;;;;;;4979480;28;20536;-81
2023/06/15 11:50:43;;;;;;;11.60;10.35;;;18.20;78.80;;;;;;4996952;28;20054;-81
2023/06/15 11:53:16;;;;;;;13.20;10.95;;;18.30;76.10;;;;;;5020440;28;20360;-82
2023/06/15 11:55:44;;;;;;;13.13;11.10;;;18.40;77.00;;;;;;5019334;28;20079;-83
2023/06/15 11:58:09;;;;;;;13.00;11.60;;;18.60;75.80;;;;;;5008912;28;20049;-83
2023/06/15 12:00:35;;;;;;;12.35;10.63;;;19.00;74.40;;;;;;5010204;28;20794;-83
2023/06/15 12:03:07;;;;;;;12.63;10.68;;;19.20;72.10;;;;;;5010037;28;20029;-84
2023/06/15 12:05:32;;;;;;;13.90;10.93;;;19.30;68.20;;;;;;5008977;28;20037;-83
2023/06/15 12:07:59;;;;;;;14.77;10.52;;;19.80;66.50;;;;;;5008686;28;20022;-83
2023/06/15 12:10:25;;;;;;;11.88;9.93;;;20.10;65.70;;;;;;5008785;28;20109;-82
2023/06/15 12:12:51;;;;;;;15.10;11.23;;;20.40;64.20;;;;;;5008745;28;20076;-83
2023/06/15 12:15:17;;;;;;;10.77;9.68;;;20.70;63.80;;;;;;5009883;28;20033;-83
2023/06/15 12:17:43;;;;;;;12.65;11.23;;;21.10;64.50;;;;;;5008716;28;20121;-83
2023/06/15 12:20:09;;;;;;;15.02;11.70;;;21.40;63.80;;;;;;5008728;28;20167;-83
2023/06/15 12:22:46;;;;;;;13.70;11.60;;;21.60;62.00;;;;;;5015370;28;20532;-84
2023/06/15 12:25:13;;;;;;;16.92;12.35;;;21.70;61.40;;;;;;5017408;28;20116;-83
2023/06/15 12:27:45;;;;;;;13.68;11.55;;;21.90;63.20;;;;;;5017476;28;20025;-83
2023/06/15 12:30:20;;;;;;;17.88;12.50;;;22.00;62.50;;;;;;5028776;28;20402;-83
2023/06/15 12:32:47;;;;;;;14.00;12.05;;;22.30;62.50;;;;;;5025425;28;20018;-83